メインページ
METAR-TAF:

METAR-TAF

空港 :

エンテベ国際空港

エンテベ, ウガンダ

緯度: 00-03N, 経度: 032-27E, 海抜: 1155m

現時点の気象観測

当レポートは1時間48分前の20:30(UTC)に作成
北西の風 4kt
気温 21°C
湿度 94%
気圧 1018 hPa
視程10km以上
高度2000ftの雲はほとんどない
高度2200ftの雲はほとんどない, 積乱雲.

METAR: HUEN 162030Z 32004KT 9999 FEW020 FEW022CB 21/20 Q1018

時間: 01:18 (22:18 UTC)

予報

当レポートは5時間18分前の17:00(UTC)に作成
予報は16日の 18時(UTC)から 17日の 24時(UTC)まで有効
南西の風 5kt
視程10km以上
高度2000ftの雲はほとんどない
高度2200ftの雲はほとんどない, 積乱雲.
16日の 21時(UTC)から 16日の 24時(UTC)まで徐々に
北/北西の風 6kt
高度1900ftの雲はほとんどない
高度2100ftの雲はほとんどない, 積乱雲.
高度10000ftの雲は散在している
17日の 01時(UTC)から 17日の 07時(UTC)まで一時的に
変向風 8kt
視程: 8000m
高度1800ftの雲は散在している
高度2000ftの雲はほとんどない, 積乱雲.
高度9000ftの曇り
激しい雷雨, 小雨
17日の 08時(UTC)から 17日の 12時(UTC)まで徐々に
南/南東の風 10kt
視程10km以上
高度2100ftの千切れ雲あり
高度2300ftの雲はほとんどない, 積乱雲.
激しい雷雨, (弱い
時(UTC)から
南西の風 4kt
高度2000ftの雲はほとんどない
高度2200ftの雲はほとんどない, 積乱雲.
17日の 21時(UTC)から 17日の 24時(UTC)まで徐々に
北西の風 5kt
高度1800ftの雲はほとんどない
高度2000ftの雲はほとんどない, 積乱雲.

TAF: HUEN 161700Z 1618/1724 23005KT 9999 FEW020 FEW022CB BECMG 1621/1624 34006KT FEW019 FEW021CB SCT100 TEMPO 1701/1707 VRB08KT 8000 -TSRA SCT018 FEW020CB OVC090 BECMG 1708/1712 16010KT 9999 -TS BKN021 FEW023CB FM 171600 22004KT FEW020 FEW022CB BECMG 1721/1724 32005KT FEW018 FEW020CB

4,000以上の空港の気象観測と天気予報(METAR報とTAF報)

利用可能な観測所は地図上に黄色い丸と赤い丸で示す。

丸の上にカーソルを重ねると観測所名を参照できる。

次にクリックすると気象観測と天気予報を参照できる。

マップの切り替え:黒色「×」印の緑ボタンをクリックして拡大、「-」印の緑ボタンをクリックして縮小、緑色の三角印をクリックして隣りの地図に切り替え


METAR-TAF: